Time;durP1;ratioP1;P1;durP2;ratioP2;P2;SDS_P1;SDS_P2;PMS_P1;PMS_P2;Temp;Humidity;BMP_temperature;BMP_pressure;BME280_temperature;BME280_humidity;BME280_pressure;Samples;Min_cycle;Max_cycle;Signal;HPM_P1;HPM_P2
2022/08/25 00:00:15;;;;;;;10.00;9.10;;;23.90;86.50;;;;;;4986512;28;20411;-66
2022/08/25 00:02:41;;;;;;;9.80;8.90;;;23.90;86.70;;;;;;5000780;28;20485;-66
2022/08/25 00:05:07;;;;;;;10.37;9.60;;;23.90;86.30;;;;;;5014007;28;20441;-65
2022/08/25 00:07:32;;;;;;;9.33;8.63;;;23.80;86.30;;;;;;5012857;28;20229;-65
2022/08/25 00:09:58;;;;;;;9.73;8.93;;;23.80;86.60;;;;;;5014657;28;20179;-66
2022/08/25 00:12:25;;;;;;;10.97;10.17;;;23.80;86.90;;;;;;5003080;28;20191;-65
2022/08/25 00:14:50;;;;;;;10.00;9.20;;;23.80;87.00;;;;;;4995214;28;20230;-70
2022/08/25 00:17:16;;;;;;;10.57;9.77;;;23.80;86.90;;;;;;5001799;28;20430;-66
2022/08/25 00:19:42;;;;;;;9.70;8.80;;;23.80;86.90;;;;;;5014858;28;20181;-66
2022/08/25 00:22:08;;;;;;;10.23;9.30;;;23.80;87.60;;;;;;5014193;28;20400;-66
2022/08/25 00:24:35;;;;;;;9.80;9.20;;;23.80;87.50;;;;;;5014768;28;20191;-66
2022/08/25 00:27:01;;;;;;;10.90;10.00;;;23.80;87.80;;;;;;5010891;28;20520;-65
2022/08/25 00:29:28;;;;;;;10.27;9.57;;;23.70;87.50;;;;;;5015265;28;20894;-66
2022/08/25 00:31:55;;;;;;;9.83;8.93;;;23.70;87.50;;;;;;5013970;28;20426;-65
2022/08/25 00:34:31;;;;;;;10.60;9.70;;;23.70;87.90;;;;;;5003998;28;20915;-66
2022/08/25 00:36:57;;;;;;;10.73;9.70;;;23.70;87.40;;;;;;5005751;28;20430;-66
2022/08/25 00:39:23;;;;;;;9.70;9.00;;;23.70;87.60;;;;;;5014224;28;20445;-66
2022/08/25 00:41:51;;;;;;;9.37;8.60;;;23.60;88.30;;;;;;5003982;28;20259;-70
2022/08/25 00:44:18;;;;;;;10.00;9.20;;;23.60;88.10;;;;;;5000974;28;20422;-65
2022/08/25 00:46:54;;;;;;;9.80;8.83;;;23.60;87.90;;;;;;4994715;28;20435;-66
2022/08/25 00:49:25;;;;;;;10.03;9.23;;;23.50;87.90;;;;;;5010599;28;20797;-65
2022/08/25 00:52:22;;;;;;;9.43;8.83;;;23.50;88.20;;;;;;5014219;28;20395;-70
2022/08/25 00:54:57;;;;;;;10.13;9.43;;;23.50;88.50;;;;;;5010420;28;20445;-65
2022/08/25 00:57:28;;;;;;;11.13;10.27;;;23.50;89.40;;;;;;5013018;28;20436;-66
2022/08/25 00:59:55;;;;;;;9.73;9.03;;;23.40;90.00;;;;;;5013184;28;20410;-66
2022/08/25 01:02:22;;;;;;;12.23;11.23;;;23.40;90.20;;;;;;4994161;28;20536;-65
2022/08/25 01:04:48;;;;;;;11.80;10.80;;;23.40;90.10;;;;;;5011514;28;20801;-66
2022/08/25 01:07:15;;;;;;;11.53;10.57;;;23.40;90.30;;;;;;5012883;28;20422;-65
2022/08/25 01:09:42;;;;;;;11.13;10.23;;;23.40;90.40;;;;;;5014182;28;20442;-65
2022/08/25 01:12:08;;;;;;;11.37;10.37;;;23.40;90.50;;;;;;5013331;28;20425;-66
2022/08/25 01:14:35;;;;;;;10.97;9.93;;;23.30;90.50;;;;;;4996755;28;20430;-66
2022/08/25 01:17:01;;;;;;;11.23;10.40;;;23.30;90.40;;;;;;5010838;28;20265;-66
2022/08/25 01:19:29;;;;;;;11.70;10.73;;;23.30;90.50;;;;;;5002038;28;20477;-66
2022/08/25 01:21:55;;;;;;;12.07;11.10;;;23.30;90.50;;;;;;5013124;28;20179;-68
2022/08/25 01:24:41;;;;;;;11.60;10.73;;;23.30;90.50;;;;;;5013682;28;20940;-66
2022/08/25 01:27:07;;;;;;;11.63;10.70;;;23.30;90.70;;;;;;5010831;28;20434;-66
2022/08/25 01:29:34;;;;;;;13.00;11.80;;;23.20;91.00;;;;;;5012809;28;20830;-65
2022/08/25 01:32:07;;;;;;;12.57;11.53;;;23.20;91.10;;;;;;5012884;28;20905;-66
2022/08/25 01:34:40;;;;;;;13.67;12.47;;;23.20;92.10;;;;;;5013147;28;20921;-66
2022/08/25 01:37:08;;;;;;;14.03;12.60;;;23.10;91.60;;;;;;4993307;28;20452;-66
2022/08/25 01:39:37;;;;;;;12.90;11.77;;;23.10;91.70;;;;;;5013263;28;20434;-66
2022/08/25 01:42:07;;;;;;;12.43;11.53;;;23.10;92.00;;;;;;5008002;28;20441;-66
2022/08/25 01:44:36;;;;;;;13.87;12.77;;;23.00;92.10;;;;;;5013846;28;20433;-65
2022/08/25 01:47:04;;;;;;;12.77;11.80;;;23.00;92.30;;;;;;4995410;28;20414;-66
2022/08/25 01:49:31;;;;;;;13.27;12.10;;;23.00;92.60;;;;;;5013793;28;20607;-66
2022/08/25 01:52:22;;;;;;;12.60;11.70;;;23.00;92.80;;;;;;5011477;28;20422;-66
2022/08/25 01:54:48;;;;;;;12.83;11.83;;;22.90;92.70;;;;;;5013460;28;20775;-66
2022/08/25 01:57:15;;;;;;;13.03;12.03;;;22.90;92.70;;;;;;5010143;28;20418;-66
2022/08/25 01:59:41;;;;;;;13.70;12.70;;;22.90;92.90;;;;;;5013482;28;20528;-66
2022/08/25 02:02:07;;;;;;;14.03;12.73;;;22.90;93.00;;;;;;5012184;28;20468;-66
2022/08/25 02:04:33;;;;;;;13.23;12.23;;;22.80;93.10;;;;;;5010231;28;20451;-66
2022/08/25 02:07:00;;;;;;;12.00;11.20;;;22.80;93.10;;;;;;5012183;28;20210;-66
2022/08/25 02:09:26;;;;;;;12.97;12.07;;;22.80;93.20;;;;;;5013396;28;20456;-66
2022/08/25 02:11:52;;;;;;;13.53;12.33;;;22.80;93.70;;;;;;5012665;28;20446;-66
2022/08/25 02:14:18;;;;;;;14.33;13.13;;;22.80;93.30;;;;;;5012600;28;20878;-66
2022/08/25 02:16:49;;;;;;;14.10;12.90;;;22.80;93.60;;;;;;5012640;28;20179;-65
2022/08/25 02:19:16;;;;;;;14.13;12.83;;;22.80;93.70;;;;;;4992884;28;20647;-65
2022/08/25 02:21:42;;;;;;;14.53;13.30;;;22.80;93.60;;;;;;4993135;28;20413;-67
2022/08/25 02:24:09;;;;;;;12.47;11.57;;;22.70;93.80;;;;;;5000507;28;20547;-65
2022/08/25 02:26:35;;;;;;;12.83;11.80;;;22.70;93.90;;;;;;5010448;28;20785;-66
2022/08/25 02:29:02;;;;;;;12.73;11.83;;;22.70;94.00;;;;;;4997518;28;20438;-65
2022/08/25 02:31:28;;;;;;;11.30;10.50;;;22.70;93.70;;;;;;4993328;28;20187;-66
2022/08/25 02:33:54;;;;;;;12.20;11.10;;;22.70;93.60;;;;;;5005523;28;20918;-66
2022/08/25 02:36:20;;;;;;;11.47;10.47;;;22.60;93.20;;;;;;5011395;28;20198;-66
2022/08/25 02:38:46;;;;;;;11.47;10.67;;;22.60;93.20;;;;;;5012429;28;20424;-66
2022/08/25 02:41:15;;;;;;;12.00;11.00;;;22.60;93.20;;;;;;5014901;28;20210;-65
2022/08/25 02:43:42;;;;;;;11.20;10.30;;;22.60;93.10;;;;;;5012591;28;20453;-66
2022/08/25 02:46:09;;;;;;;11.90;10.73;;;22.60;93.10;;;;;;5011954;28;20457;-66
2022/08/25 02:48:34;;;;;;;9.73;9.03;;;22.60;93.40;;;;;;5010041;28;20751;-65
2022/08/25 02:51:01;;;;;;;10.53;9.43;;;22.50;93.00;;;;;;5011883;28;20468;-66
2022/08/25 02:53:28;;;;;;;9.83;9.13;;;22.50;92.20;;;;;;5012333;28;20201;-66
2022/08/25 02:55:54;;;;;;;9.57;8.83;;;22.50;92.60;;;;;;5001343;28;20888;-66
2022/08/25 02:58:20;;;;;;;9.40;8.80;;;22.50;92.90;;;;;;5007890;28;20421;-66
2022/08/25 03:00:47;;;;;;;9.20;8.47;;;22.50;92.60;;;;;;5011967;28;20418;-66
2022/08/25 03:03:16;;;;;;;9.57;8.87;;;22.60;92.40;;;;;;5011012;28;20965;-66
2022/08/25 03:05:42;;;;;;;8.93;8.30;;;22.60;92.10;;;;;;5011537;28;20449;-65
2022/08/25 03:08:09;;;;;;;8.53;7.83;;;22.60;93.00;;;;;;5010688;28;20520;-66
2022/08/25 03:10:35;;;;;;;8.43;7.93;;;22.60;92.30;;;;;;5012231;28;20445;-66
2022/08/25 03:13:01;;;;;;;9.67;8.77;;;22.50;92.00;;;;;;5010917;28;20442;-66
2022/08/25 03:15:27;;;;;;;8.60;8.00;;;22.50;92.30;;;;;;5012400;28;20171;-65
2022/08/25 03:17:54;;;;;;;8.80;8.20;;;22.50;91.90;;;;;;5004167;28;20644;-65
2022/08/25 03:20:22;;;;;;;9.00;8.50;;;22.40;92.20;;;;;;4991746;28;20427;-66
2022/08/25 03:22:48;;;;;;;9.83;9.07;;;22.40;92.60;;;;;;4996006;28;20476;-66
2022/08/25 03:27:59;;;;;;;10.67;9.77;;;22.40;93.40;;;;;;5009375;28;20417;-70
2022/08/25 03:30:26;;;;;;;9.90;9.20;;;22.30;94.80;;;;;;5011980;28;20425;-65
2022/08/25 03:32:52;;;;;;;10.73;9.70;;;22.20;93.80;;;;;;4953619;28;20470;-66
2022/08/25 03:35:18;;;;;;;11.13;10.40;;;22.20;93.40;;;;;;5011095;28;20449;-66
2022/08/25 03:37:44;;;;;;;11.10;10.17;;;22.10;93.50;;;;;;5011713;28;20427;-65
2022/08/25 03:40:12;;;;;;;11.80;10.90;;;22.10;94.00;;;;;;5003359;28;20434;-66
2022/08/25 03:42:43;;;;;;;11.63;10.73;;;22.10;94.20;;;;;;4992587;28;20214;-65
2022/08/25 03:45:12;;;;;;;11.47;10.53;;;22.10;94.20;;;;;;4991765;28;20423;-66
2022/08/25 03:47:39;;;;;;;11.07;10.00;;;22.10;94.20;;;;;;5000945;28;20425;-65
2022/08/25 03:50:10;;;;;;;11.80;10.70;;;22.00;94.10;;;;;;5011065;28;20464;-66
2022/08/25 03:52:36;;;;;;;10.47;9.50;;;22.00;94.20;;;;;;5012201;28;20410;-65
2022/08/25 03:55:05;;;;;;;10.97;10.10;;;22.00;94.60;;;;;;5010942;28;20821;-71
2022/08/25 03:57:31;;;;;;;12.57;11.27;;;22.00;94.80;;;;;;5009377;28;20417;-65
2022/08/25 03:59:57;;;;;;;14.60;13.47;;;22.00;94.70;;;;;;5011087;28;20420;-66
2022/08/25 04:02:22;;;;;;;12.83;11.73;;;21.90;94.70;;;;;;5009274;28;20238;-65
2022/08/25 04:04:49;;;;;;;12.63;11.73;;;21.80;94.90;;;;;;5011812;28;20195;-65
2022/08/25 04:07:15;;;;;;;12.37;11.07;;;21.90;95.20;;;;;;5008487;28;20190;-66
2022/08/25 04:09:40;;;;;;;11.67;10.77;;;21.90;95.30;;;;;;5011873;28;20426;-67
2022/08/25 04:12:06;;;;;;;10.80;10.07;;;21.90;95.50;;;;;;5014059;28;20414;-67
2022/08/25 04:14:32;;;;;;;10.93;9.93;;;21.90;95.20;;;;;;5014132;28;20546;-67
2022/08/25 04:16:58;;;;;;;11.10;9.87;;;21.90;95.40;;;;;;5013209;28;20480;-67
2022/08/25 04:19:24;;;;;;;10.23;9.50;;;21.90;95.30;;;;;;5014687;28;20406;-66
2022/08/25 04:21:50;;;;;;;11.13;10.33;;;21.90;95.20;;;;;;5007879;28;20208;-67
2022/08/25 04:24:17;;;;;;;11.37;10.37;;;21.90;95.20;;;;;;5014255;28;20245;-66
2022/08/25 04:26:48;;;;;;;11.50;10.60;;;21.90;95.10;;;;;;5012816;28;20462;-66
2022/08/25 04:29:17;;;;;;;12.90;11.80;;;21.90;95.10;;;;;;5008705;28;20457;-67
2022/08/25 04:31:49;;;;;;;11.90;10.90;;;21.90;95.40;;;;;;5013447;28;20438;-66
2022/08/25 04:34:19;;;;;;;11.87;10.93;;;21.90;95.40;;;;;;5013954;28;20420;-67
2022/08/25 04:36:45;;;;;;;11.70;10.70;;;21.90;95.60;;;;;;4995928;28;20418;-67
2022/08/25 04:39:11;;;;;;;11.87;11.03;;;21.80;95.20;;;;;;5014792;28;20453;-67
2022/08/25 04:41:38;;;;;;;12.70;11.60;;;21.70;95.50;;;;;;5015340;28;20434;-67
2022/08/25 04:44:05;;;;;;;11.73;10.73;;;21.80;97.90;;;;;;5014250;28;20461;-68
2022/08/25 04:46:32;;;;;;;10.87;10.00;;;21.80;95.30;;;;;;5014893;28;20398;-68
2022/08/25 04:49:00;;;;;;;10.00;9.30;;;21.70;94.40;;;;;;5014910;28;20844;-67
2022/08/25 04:51:32;;;;;;;10.30;9.50;;;21.70;94.50;;;;;;5014585;28;20878;-67
2022/08/25 04:54:00;;;;;;;10.93;9.97;;;21.60;94.70;;;;;;5015090;28;20524;-68
2022/08/25 04:56:27;;;;;;;10.47;9.57;;;21.60;94.50;;;;;;5012468;28;20417;-68
2022/08/25 04:58:54;;;;;;;10.53;9.63;;;21.60;94.30;;;;;;5014376;28;20418;-67
2022/08/25 05:01:23;;;;;;;10.10;9.30;;;21.50;94.50;;;;;;5008464;28;20441;-67
2022/08/25 05:03:58;;;;;;;10.27;9.47;;;21.50;95.10;;;;;;5013907;28;20492;-67
2022/08/25 05:06:25;;;;;;;9.70;8.90;;;21.30;94.90;;;;;;4994257;28;20441;-67
2022/08/25 05:08:51;;;;;;;10.47;9.77;;;21.20;95.10;;;;;;5013820;28;20444;-66
2022/08/25 05:11:18;;;;;;;9.60;8.90;;;21.00;95.40;;;;;;5011527;28;20460;-65
2022/08/25 05:13:49;;;;;;;11.53;10.43;;;21.00;95.60;;;;;;5014824;28;20426;-66
2022/08/25 05:16:15;;;;;;;9.07;8.37;;;20.80;95.90;;;;;;5013915;28;20497;-63
2022/08/25 05:18:42;;;;;;;10.00;9.20;;;20.80;96.30;;;;;;5014499;28;20429;-63
2022/08/25 05:21:11;;;;;;;10.50;9.70;;;20.80;96.20;;;;;;5014188;28;20413;-63
2022/08/25 05:23:37;;;;;;;8.80;8.17;;;21.00;96.10;;;;;;5013803;28;20457;-64
2022/08/25 05:26:06;;;;;;;11.27;10.57;;;21.10;96.00;;;;;;5014645;28;20512;-63
2022/08/25 05:28:32;;;;;;;9.37;8.57;;;21.10;96.10;;;;;;5003133;28;20481;-63
2022/08/25 05:31:01;;;;;;;8.47;7.60;;;21.20;95.80;;;;;;4933352;29;20442;-63
2022/08/25 05:33:27;;;;;;;10.50;9.70;;;21.30;95.70;;;;;;4933691;29;20880;-63
2022/08/25 05:35:54;;;;;;;12.00;10.50;;;21.30;95.50;;;;;;4933240;29;20463;-63
2022/08/25 05:38:20;;;;;;;9.53;8.73;;;21.40;95.40;;;;;;4946316;29;20932;-63
2022/08/25 05:40:46;;;;;;;11.90;11.10;;;21.50;95.50;;;;;;4940678;29;20501;-63
2022/08/25 05:43:13;;;;;;;10.70;9.90;;;21.50;95.40;;;;;;4933999;29;20479;-63
2022/08/25 05:45:39;;;;;;;9.97;9.17;;;21.60;95.10;;;;;;4934185;29;20204;-63
2022/08/25 05:48:05;;;;;;;10.37;9.63;;;21.70;95.00;;;;;;4924742;29;20441;-71
2022/08/25 05:50:31;;;;;;;10.80;10.10;;;21.70;95.00;;;;;;4934255;29;20836;-63
2022/08/25 05:52:57;;;;;;;11.37;10.50;;;21.80;94.80;;;;;;4934176;29;20508;-63
2022/08/25 05:55:23;;;;;;;10.13;9.13;;;21.70;94.90;;;;;;4933055;29;20216;-63
2022/08/25 05:57:49;;;;;;;10.70;9.90;;;21.80;94.80;;;;;;4940431;29;20188;-63
2022/08/25 06:00:16;;;;;;;7.93;7.43;;;21.80;94.70;;;;;;4947672;29;20260;-62
2022/08/25 06:02:43;;;;;;;9.47;8.63;;;21.80;94.90;;;;;;4927097;29;20494;-62
2022/08/25 06:05:16;;;;;;;11.20;10.20;;;21.90;94.90;;;;;;4929881;29;20450;-69
2022/08/25 06:07:43;;;;;;;12.03;11.03;;;21.90;94.80;;;;;;4952914;28;20442;-62
2022/08/25 06:10:12;;;;;;;10.33;9.27;;;21.90;95.00;;;;;;5013155;28;20418;-63
2022/08/25 06:12:39;;;;;;;11.20;10.40;;;21.90;94.90;;;;;;5012823;28;20464;-62
2022/08/25 06:15:05;;;;;;;11.30;10.50;;;22.00;95.00;;;;;;5013558;28;20417;-63
2022/08/25 06:17:31;;;;;;;11.53;10.33;;;22.10;94.90;;;;;;5010119;28;20932;-63
2022/08/25 06:19:57;;;;;;;11.77;10.93;;;22.10;95.10;;;;;;5013649;28;20414;-62
2022/08/25 06:22:24;;;;;;;9.50;8.77;;;22.20;94.90;;;;;;5012919;28;20298;-62
2022/08/25 06:24:50;;;;;;;10.50;9.80;;;22.20;94.90;;;;;;5017613;28;20191;-62
2022/08/25 06:27:16;;;;;;;9.10;8.50;;;22.30;95.00;;;;;;5009951;28;20418;-63
2022/08/25 06:29:42;;;;;;;9.53;8.83;;;22.40;95.40;;;;;;5013517;28;20179;-62
2022/08/25 06:32:08;;;;;;;12.67;8.67;;;22.50;95.30;;;;;;5013237;28;20885;-71
2022/08/25 06:34:34;;;;;;;10.10;9.10;;;22.40;95.00;;;;;;5012456;28;20465;-62
2022/08/25 06:37:00;;;;;;;9.40;8.70;;;22.50;95.00;;;;;;5010702;28;20183;-62
2022/08/25 06:39:25;;;;;;;10.20;9.40;;;22.50;95.00;;;;;;5012673;28;20175;-62
2022/08/25 06:41:55;;;;;;;10.17;9.17;;;22.60;94.90;;;;;;5012322;28;20187;-62
2022/08/25 06:44:23;;;;;;;9.73;8.93;;;22.70;94.90;;;;;;5012665;28;20194;-62
2022/08/25 06:46:49;;;;;;;10.30;9.50;;;22.70;94.70;;;;;;5008717;28;20427;-62
2022/08/25 06:49:15;;;;;;;9.33;8.53;;;22.80;94.80;;;;;;5012502;28;20418;-63
2022/08/25 06:51:41;;;;;;;10.70;9.90;;;22.70;95.00;;;;;;5013065;28;20414;-62
2022/08/25 06:54:09;;;;;;;10.00;9.10;;;22.90;95.10;;;;;;5013214;28;20421;-62
2022/08/25 06:56:36;;;;;;;9.70;8.90;;;23.00;95.20;;;;;;4992980;28;20473;-64
2022/08/25 06:59:03;;;;;;;9.37;8.57;;;23.10;95.20;;;;;;5012607;28;20905;-62
2022/08/25 07:01:30;;;;;;;10.33;9.23;;;23.20;95.50;;;;;;5012266;28;20425;-63
2022/08/25 07:03:58;;;;;;;9.87;8.87;;;23.30;95.40;;;;;;5012950;28;20480;-62
2022/08/25 07:06:26;;;;;;;10.27;9.33;;;23.40;95.40;;;;;;5010783;28;20889;-63
2022/08/25 07:08:52;;;;;;;10.60;9.60;;;23.50;95.20;;;;;;5011948;28;20429;-62
2022/08/25 07:11:21;;;;;;;10.70;9.87;;;23.60;95.10;;;;;;5011700;28;20434;-63
2022/08/25 07:13:48;;;;;;;15.13;7.83;;;23.60;94.60;;;;;;5012971;28;20265;-62
2022/08/25 07:16:15;;;;;;;9.30;8.50;;;23.70;94.40;;;;;;5011910;28;20778;-60
2022/08/25 07:18:41;;;;;;;9.60;8.90;;;23.80;94.50;;;;;;5011677;28;20896;-62
2022/08/25 07:21:07;;;;;;;9.30;8.47;;;23.80;94.10;;;;;;5012849;28;20509;-63
2022/08/25 07:23:33;;;;;;;9.70;8.90;;;23.90;94.10;;;;;;5011924;28;20476;-62
2022/08/25 07:26:08;;;;;;;15.13;8.43;;;24.00;94.40;;;;;;5012819;28;20273;-62
2022/08/25 07:28:33;;;;;;;10.90;9.80;;;24.10;94.80;;;;;;4970153;28;20190;-61
2022/08/25 07:31:00;;;;;;;11.17;10.27;;;24.10;94.00;;;;;;5012712;28;20421;-61
2022/08/25 07:33:26;;;;;;;10.13;9.33;;;24.30;93.90;;;;;;5010833;28;20637;-61
2022/08/25 07:35:52;;;;;;;10.13;9.43;;;24.40;94.40;;;;;;5012962;28;20418;-61
2022/08/25 07:38:17;;;;;;;10.53;9.07;;;24.40;94.30;;;;;;5006474;28;20179;-62
2022/08/25 07:40:43;;;;;;;8.77;8.27;;;24.50;94.00;;;;;;5011731;28;20171;-62
2022/08/25 07:43:09;;;;;;;10.43;9.50;;;24.70;94.20;;;;;;4961173;28;20250;-62
2022/08/25 07:45:38;;;;;;;12.60;11.67;;;24.70;93.90;;;;;;5012468;28;20206;-62
2022/08/25 07:48:09;;;;;;;10.27;9.57;;;24.80;93.90;;;;;;4983031;28;20422;-61
2022/08/25 07:50:42;;;;;;;10.77;9.97;;;24.90;93.40;;;;;;5015745;28;20414;-61
2022/08/25 07:53:09;;;;;;;14.80;13.33;;;25.00;93.20;;;;;;5015975;28;20902;-62
2022/08/25 07:55:35;;;;;;;13.33;12.20;;;25.10;93.20;;;;;;5015689;28;20468;-62
2022/08/25 07:58:03;;;;;;;11.33;10.33;;;25.30;93.20;;;;;;5015325;28;20416;-61
2022/08/25 08:00:31;;;;;;;10.90;9.67;;;25.30;92.80;;;;;;5015680;28;20744;-62
2022/08/25 08:02:57;;;;;;;11.17;10.20;;;25.50;92.80;;;;;;5015609;28;20473;-62
2022/08/25 08:05:24;;;;;;;10.67;9.67;;;25.60;93.10;;;;;;5015555;28;20757;-62
2022/08/25 08:07:51;;;;;;;9.20;8.30;;;25.60;92.80;;;;;;5013264;28;20414;-62
2022/08/25 08:10:17;;;;;;;13.00;11.90;;;25.80;92.70;;;;;;5015545;28;20419;-62
2022/08/25 08:12:43;;;;;;;11.03;10.10;;;25.90;93.10;;;;;;5013618;28;20456;-62
2022/08/25 08:15:09;;;;;;;9.57;8.60;;;25.90;92.60;;;;;;5015520;28;20650;-62
2022/08/25 08:17:35;;;;;;;11.40;10.50;;;26.10;92.60;;;;;;5014118;28;20456;-62
2022/08/25 08:20:03;;;;;;;9.80;9.03;;;26.20;92.10;;;;;;5014578;28;20710;-62
2022/08/25 08:22:29;;;;;;;9.60;9.00;;;26.30;92.50;;;;;;5015162;28;20207;-62
2022/08/25 08:24:55;;;;;;;9.90;9.10;;;26.40;91.30;;;;;;5015598;28;20433;-62
2022/08/25 08:27:20;;;;;;;10.10;9.30;;;26.50;91.20;;;;;;5005575;28;20176;-62
2022/08/25 08:29:46;;;;;;;9.90;9.10;;;26.70;91.50;;;;;;5004504;28;20187;-62
2022/08/25 08:32:13;;;;;;;9.97;9.17;;;26.70;90.80;;;;;;5004372;28;20628;-62
2022/08/25 08:34:40;;;;;;;11.67;9.70;;;26.90;90.60;;;;;;5002833;28;20419;-62
2022/08/25 08:37:07;;;;;;;9.60;8.90;;;27.00;90.40;;;;;;5006150;28;20422;-62
2022/08/25 08:39:32;;;;;;;9.73;9.03;;;27.10;90.10;;;;;;5004296;28;20789;-62
2022/08/25 08:42:24;;;;;;;10.30;9.50;;;27.20;89.80;;;;;;5005560;28;20402;-62
2022/08/25 08:45:02;;;;;;;10.67;9.63;;;27.40;89.20;;;;;;4991945;28;20199;-62
2022/08/25 08:47:51;;;;;;;10.70;10.00;;;27.50;90.10;;;;;;5004545;28;20437;-62
2022/08/25 08:50:48;;;;;;;8.80;8.10;;;27.60;86.30;;;;;;5004178;28;20420;-64
2022/08/25 08:53:31;;;;;;;9.80;8.90;;;27.80;86.70;;;;;;5002991;28;20469;-62
2022/08/25 08:55:59;;;;;;;10.67;9.60;;;27.90;87.40;;;;;;5003262;28;20411;-62
2022/08/25 08:59:00;;;;;;;9.07;8.47;;;27.90;85.60;;;;;;4988123;28;20493;-63
2022/08/25 09:01:31;;;;;;;8.33;7.73;;;28.00;84.80;;;;;;4978423;28;20472;-62
2022/08/25 09:04:34;;;;;;;10.87;10.00;;;28.10;83.90;;;;;;5006399;28;20543;-64
2022/08/25 09:07:02;;;;;;;8.60;7.77;;;28.20;82.10;;;;;;5005148;28;20433;-62
2022/08/25 09:09:30;;;;;;;8.70;8.10;;;28.20;82.20;;;;;;5002658;28;20426;-63
2022/08/25 09:12:05;;;;;;;9.47;8.70;;;28.30;81.60;;;;;;5003014;28;20418;-62
2022/08/25 09:14:41;;;;;;;9.80;8.90;;;28.40;81.00;;;;;;5002992;28;20480;-62
2022/08/25 09:17:45;;;;;;;9.33;8.63;;;28.30;80.30;;;;;;5004111;28;20501;-62
2022/08/25 09:20:37;;;;;;;9.33;8.73;;;28.50;80.60;;;;;;5009331;28;20884;-62
2022/08/25 09:23:24;;;;;;;8.10;7.50;;;28.60;78.20;;;;;;5014280;28;20446;-62
2022/08/25 09:26:20;;;;;;;9.07;8.47;;;28.70;77.40;;;;;;4994927;28;20824;-62
2022/08/25 09:28:54;;;;;;;9.47;8.87;;;28.80;75.80;;;;;;5011640;28;20761;-67
2022/08/25 09:31:34;;;;;;;9.50;8.70;;;29.00;77.20;;;;;;5002680;28;20558;-67
2022/08/25 09:34:04;;;;;;;9.47;8.80;;;29.20;74.60;;;;;;4999463;28;20752;-62
2022/08/25 09:36:32;;;;;;;8.53;7.93;;;29.40;71.90;;;;;;5013492;28;20751;-62
2022/08/25 09:38:58;;;;;;;9.67;9.00;;;29.60;71.00;;;;;;5007175;28;20848;-64
2022/08/25 09:41:50;;;;;;;7.90;7.43;;;29.80;71.20;;;;;;4993498;28;20922;-62
2022/08/25 09:44:30;;;;;;;9.33;8.60;;;30.00;69.70;;;;;;5008039;28;20572;-68
2022/08/25 09:47:06;;;;;;;7.77;7.17;;;30.30;64.50;;;;;;5003421;28;20409;-62
2022/08/25 09:49:42;;;;;;;6.10;5.80;;;30.50;65.50;;;;;;5005625;28;20941;-62
2022/08/25 09:52:30;;;;;;;6.67;6.33;;;30.60;59.40;;;;;;5010248;28;20448;-63
2022/08/25 09:55:00;;;;;;;7.00;6.50;;;30.70;60.00;;;;;;5007515;28;20466;-63
2022/08/25 09:57:36;;;;;;;7.00;6.50;;;30.90;61.00;;;;;;5012721;28;20445;-64
2022/08/25 10:00:29;;;;;;;7.73;7.20;;;31.10;64.30;;;;;;5003882;28;20985;-63
2022/08/25 10:03:19;;;;;;;7.10;6.70;;;31.40;63.40;;;;;;5000296;28;20854;-65
2022/08/25 10:05:45;;;;;;;7.83;7.23;;;31.60;60.60;;;;;;5001229;28;20425;-63
2022/08/25 10:08:21;;;;;;;5.83;5.53;;;31.70;57.60;;;;;;5006839;28;20406;-63
2022/08/25 10:10:56;;;;;;;7.00;6.50;;;31.50;53.00;;;;;;5013501;28;20170;-63
2022/08/25 10:13:33;;;;;;;19.53;5.70;;;31.30;52.60;;;;;;5013099;28;20432;-63
2022/08/25 10:16:07;;;;;;;6.00;5.60;;;31.50;53.20;;;;;;5005474;28;20450;-63
2022/08/25 10:18:33;;;;;;;6.93;6.53;;;31.70;52.90;;;;;;5009073;28;20501;-63
2022/08/25 10:21:17;;;;;;;7.00;6.50;;;31.90;52.70;;;;;;5013538;28;20516;-63
2022/08/25 10:23:50;;;;;;;6.70;6.30;;;32.00;53.00;;;;;;5010780;28;20284;-64
2022/08/25 10:26:36;;;;;;;7.33;6.83;;;32.10;55.00;;;;;;5012600;28;20446;-64
2022/08/25 10:29:07;;;;;;;6.37;5.97;;;32.20;53.50;;;;;;5013179;28;20429;-64
2022/08/25 10:31:55;;;;;;;7.23;6.77;;;32.30;53.40;;;;;;5000133;28;20415;-64
2022/08/25 10:34:55;;;;;;;6.93;6.53;;;32.30;51.90;;;;;;4926852;28;20438;-64
2022/08/25 10:37:20;;;;;;;9.10;8.37;;;32.40;52.70;;;;;;4999306;28;20447;-64
2022/08/25 10:39:57;;;;;;;7.03;6.60;;;32.40;55.10;;;;;;5011906;28;20422;-65
2022/08/25 10:43:25;;;;;;;7.00;5.90;;;32.60;54.10;;;;;;5012233;28;20182;-64
2022/08/25 10:46:04;;;;;;;7.87;7.47;;;32.80;54.00;;;;;;4914033;29;20504;-64
2022/08/25 10:48:48;;;;;;;7.03;6.63;;;32.80;52.90;;;;;;4998636;28;20445;-64
2022/08/25 10:51:24;;;;;;;7.00;6.50;;;33.00;51.30;;;;;;4961980;28;20422;-61
2022/08/25 10:54:37;;;;;;;6.70;6.30;;;33.10;51.50;;;;;;4952302;29;20995;-61
2022/08/25 10:57:17;;;;;;;7.10;6.80;;;33.10;48.80;;;;;;4869369;28;20437;-63
2022/08/25 10:59:55;;;;;;;6.20;5.80;;;33.20;47.80;;;;;;4971112;28;20426;-63
2022/08/25 11:02:54;;;;;;;6.60;6.10;;;33.00;48.00;;;;;;4951431;28;20995;-63
2022/08/25 11:05:28;;;;;;;7.80;7.40;;;32.70;50.00;;;;;;4951436;29;20460;-65
2022/08/25 11:08:03;;;;;;;6.80;6.40;;;32.90;51.10;;;;;;4952603;28;20433;-63
2022/08/25 11:10:35;;;;;;;7.23;6.83;;;33.10;50.10;;;;;;4950068;29;20479;-63
2022/08/25 11:13:09;;;;;;;7.73;7.23;;;33.20;50.10;;;;;;4950262;29;20792;-62
2022/08/25 11:15:51;;;;;;;8.27;7.67;;;33.30;49.00;;;;;;4950303;29;20841;-63
2022/08/25 11:18:17;;;;;;;8.00;7.50;;;33.20;48.70;;;;;;4952113;28;20421;-63
2022/08/25 11:21:00;;;;;;;8.50;7.50;;;33.20;49.60;;;;;;4944524;28;20454;-63
2022/08/25 11:23:52;;;;;;;8.60;7.93;;;33.30;50.10;;;;;;4956484;28;20468;-63
2022/08/25 11:26:28;;;;;;;8.03;7.53;;;33.50;51.00;;;;;;5015548;28;20402;-63
2022/08/25 11:29:05;;;;;;;7.20;6.70;;;33.70;50.20;;;;;;5011148;28;20877;-64
2022/08/25 11:31:38;;;;;;;7.50;7.00;;;33.70;47.80;;;;;;4960550;28;20423;-62
2022/08/25 11:34:09;;;;;;;7.70;7.30;;;33.80;49.60;;;;;;5002110;28;20497;-62
2022/08/25 11:36:39;;;;;;;7.00;6.60;;;34.00;49.70;;;;;;5005223;28;20403;-63
2022/08/25 11:39:20;;;;;;;7.87;7.37;;;34.10;49.20;;;;;;5016325;28;20421;-61
2022/08/25 11:42:34;;;;;;;7.07;6.50;;;34.30;48.40;;;;;;5019221;28;20773;-61
2022/08/25 11:45:10;;;;;;;7.50;7.10;;;34.40;48.10;;;;;;5018590;28;20421;-62
2022/08/25 11:48:03;;;;;;;6.83;6.33;;;34.50;48.70;;;;;;5015366;28;20913;-62
2022/08/25 11:50:32;;;;;;;6.90;6.50;;;34.60;47.10;;;;;;5003026;28;20452;-64
2022/08/25 11:53:10;;;;;;;6.80;6.37;;;34.60;46.80;;;;;;4998277;28;20411;-64
2022/08/25 11:55:36;;;;;;;8.77;8.37;;;34.60;47.60;;;;;;4997931;28;20414;-62
2022/08/25 11:58:19;;;;;;;7.77;7.27;;;34.40;44.00;;;;;;5010015;28;20491;-63
2022/08/25 12:00:45;;;;;;;7.40;6.97;;;34.00;43.80;;;;;;5017848;28;20213;-63
2022/08/25 12:03:35;;;;;;;5.93;5.63;;;33.70;44.20;;;;;;5017585;28;20906;-63
2022/08/25 12:06:23;;;;;;;6.60;6.10;;;33.60;44.80;;;;;;5017959;28;20520;-63
2022/08/25 12:08:58;;;;;;;5.93;5.63;;;33.60;44.50;;;;;;5016913;28;20482;-63
2022/08/25 12:11:42;;;;;;;6.50;6.03;;;33.50;42.60;;;;;;5017380;28;20398;-65
2022/08/25 12:14:25;;;;;;;5.97;5.57;;;33.50;45.20;;;;;;5018336;28;20748;-63
2022/08/25 12:16:52;;;;;;;5.97;5.60;;;33.70;45.10;;;;;;5015368;28;20426;-65
2022/08/25 12:19:35;;;;;;;6.10;5.80;;;33.90;44.00;;;;;;5016413;28;20437;-63
2022/08/25 12:22:01;;;;;;;6.07;5.67;;;33.90;42.40;;;;;;5017455;28;20406;-64
2022/08/25 12:24:42;;;;;;;6.57;6.27;;;34.00;45.60;;;;;;5017289;28;20842;-63
2022/08/25 12:27:28;;;;;;;6.87;6.40;;;34.20;45.60;;;;;;5014454;28;20546;-63
2022/08/25 12:30:12;;;;;;;8.53;8.03;;;34.30;43.80;;;;;;4998091;28;20813;-63
2022/08/25 12:33:17;;;;;;;8.23;7.73;;;34.30;44.50;;;;;;4995420;28;20423;-63
2022/08/25 12:36:07;;;;;;;7.00;6.70;;;34.50;43.00;;;;;;4994717;28;20772;-64
2022/08/25 12:38:37;;;;;;;8.20;7.87;;;34.40;41.20;;;;;;5010445;28;20433;-63
2022/08/25 12:41:07;;;;;;;6.70;6.40;;;34.40;41.40;;;;;;5014750;28;20391;-63
2022/08/25 12:43:42;;;;;;;6.23;5.93;;;34.40;41.60;;;;;;5013758;28;20637;-63
2022/08/25 12:46:27;;;;;;;5.40;5.10;;;34.50;42.00;;;;;;5014512;28;20409;-63
2022/08/25 12:49:30;;;;;;;5.73;5.43;;;34.50;41.20;;;;;;5013132;28;20469;-63
2022/08/25 12:52:04;;;;;;;8.93;8.33;;;34.30;40.70;;;;;;5012514;28;20829;-64
2022/08/25 12:54:45;;;;;;;6.87;6.20;;;34.10;40.00;;;;;;5012722;28;20528;-63
2022/08/25 12:57:37;;;;;;;7.30;6.70;;;34.10;42.80;;;;;;5006250;28;20449;-65
2022/08/25 13:00:20;;;;;;;23.17;21.43;;;34.20;44.60;;;;;;4967826;28;20915;-63
2022/08/25 13:03:07;;;;;;;8.37;7.77;;;34.20;46.60;;;;;;5007198;28;20508;-63